sensor_id;sensor_type;location;lat;lon;timestamp;temperature;humidity
64198;SHT31;50512;53.666;9.700;2022-09-09T00:00:18;14.36;99.99
64198;SHT31;50512;53.666;9.700;2022-09-09T00:02:50;14.42;99.99
64198;SHT31;50512;53.666;9.700;2022-09-09T00:05:22;14.40;99.99
64198;SHT31;50512;53.666;9.700;2022-09-09T00:07:51;14.48;99.99
64198;SHT31;50512;53.666;9.700;2022-09-09T00:10:22;14.42;99.99
64198;SHT31;50512;53.666;9.700;2022-09-09T00:12:57;14.42;99.99
64198;SHT31;50512;53.666;9.700;2022-09-09T00:15:30;14.43;99.99
64198;SHT31;50512;53.666;9.700;2022-09-09T00:18:03;14.49;99.99
64198;SHT31;50512;53.666;9.700;2022-09-09T00:20:34;14.48;99.99
64198;SHT31;50512;53.666;9.700;2022-09-09T00:23:10;14.53;99.99
64198;SHT31;50512;53.666;9.700;2022-09-09T00:25:41;14.50;99.99
64198;SHT31;50512;53.666;9.700;2022-09-09T00:28:17;14.53;99.99
64198;SHT31;50512;53.666;9.700;2022-09-09T00:30:43;14.60;99.99
64198;SHT31;50512;53.666;9.700;2022-09-09T00:33:12;14.56;99.99
64198;SHT31;50512;53.666;9.700;2022-09-09T00:35:40;14.56;99.99
64198;SHT31;50512;53.666;9.700;2022-09-09T00:38:12;14.53;99.99
64198;SHT31;50512;53.666;9.700;2022-09-09T00:40:41;14.57;99.99
64198;SHT31;50512;53.666;9.700;2022-09-09T00:43:24;14.57;99.99
64198;SHT31;50512;53.666;9.700;2022-09-09T00:46:09;14.59;99.99
64198;SHT31;50512;53.666;9.700;2022-09-09T00:48:45;14.65;99.99
64198;SHT31;50512;53.666;9.700;2022-09-09T00:51:15;14.65;99.99
64198;SHT31;50512;53.666;9.700;2022-09-09T00:53:59;14.60;99.99
64198;SHT31;50512;53.666;9.700;2022-09-09T00:56:35;14.59;99.99
64198;SHT31;50512;53.666;9.700;2022-09-09T00:59:11;14.57;99.99
64198;SHT31;50512;53.666;9.700;2022-09-09T01:01:38;14.70;99.99
64198;SHT31;50512;53.666;9.700;2022-09-09T01:04:08;14.60;99.99
64198;SHT31;50512;53.666;9.700;2022-09-09T01:06:36;14.59;99.99
64198;SHT31;50512;53.666;9.700;2022-09-09T01:09:11;14.59;99.99
64198;SHT31;50512;53.666;9.700;2022-09-09T01:11:49;14.42;99.99
64198;SHT31;50512;53.666;9.700;2022-09-09T01:14:29;14.33;99.99
64198;SHT31;50512;53.666;9.700;2022-09-09T01:16:57;14.35;99.99
64198;SHT31;50512;53.666;9.700;2022-09-09T01:19:35;14.32;99.99
64198;SHT31;50512;53.666;9.700;2022-09-09T01:22:08;14.22;99.99
64198;SHT31;50512;53.666;9.700;2022-09-09T01:24:38;14.21;99.99
64198;SHT31;50512;53.666;9.700;2022-09-09T01:27:06;14.12;99.99
64198;SHT31;50512;53.666;9.700;2022-09-09T01:29:32;14.11;99.99
64198;SHT31;50512;53.666;9.700;2022-09-09T01:31:59;14.04;99.99
64198;SHT31;50512;53.666;9.700;2022-09-09T01:34:27;14.00;99.99
64198;SHT31;50512;53.666;9.700;2022-09-09T01:36:58;13.95;99.99
64198;SHT31;50512;53.666;9.700;2022-09-09T01:39:25;13.90;99.99
64198;SHT31;50512;53.666;9.700;2022-09-09T01:41:51;13.87;99.99
64198;SHT31;50512;53.666;9.700;2022-09-09T01:44:19;13.83;99.99
64198;SHT31;50512;53.666;9.700;2022-09-09T01:46:45;13.78;99.99
64198;SHT31;50512;53.666;9.700;2022-09-09T01:49:10;13.69;99.99
64198;SHT31;50512;53.666;9.700;2022-09-09T01:51:36;13.66;99.99
64198;SHT31;50512;53.666;9.700;2022-09-09T01:54:03;13.56;99.99
64198;SHT31;50512;53.666;9.700;2022-09-09T01:56:40;13.59;99.99
64198;SHT31;50512;53.666;9.700;2022-09-09T01:59:21;13.59;99.99
64198;SHT31;50512;53.666;9.700;2022-09-09T02:01:59;13.47;99.99
64198;SHT31;50512;53.666;9.700;2022-09-09T02:04:37;13.40;99.99
64198;SHT31;50512;53.666;9.700;2022-09-09T02:07:08;13.42;99.99
64198;SHT31;50512;53.666;9.700;2022-09-09T02:09:38;13.42;99.99
64198;SHT31;50512;53.666;9.700;2022-09-09T02:12:11;13.36;99.99
64198;SHT31;50512;53.666;9.700;2022-09-09T02:14:42;13.36;99.99
64198;SHT31;50512;53.666;9.700;2022-09-09T02:17:11;13.29;99.99
64198;SHT31;50512;53.666;9.700;2022-09-09T02:19:41;13.36;99.99
64198;SHT31;50512;53.666;9.700;2022-09-09T02:22:09;13.38;99.99
64198;SHT31;50512;53.666;9.700;2022-09-09T02:24:39;13.45;99.99
64198;SHT31;50512;53.666;9.700;2022-09-09T02:27:06;13.38;99.99
64198;SHT31;50512;53.666;9.700;2022-09-09T02:29:36;13.34;99.99
64198;SHT31;50512;53.666;9.700;2022-09-09T02:32:06;13.30;99.99
64198;SHT31;50512;53.666;9.700;2022-09-09T02:34:36;13.35;99.99
64198;SHT31;50512;53.666;9.700;2022-09-09T02:37:03;13.29;99.99
64198;SHT31;50512;53.666;9.700;2022-09-09T02:39:29;13.32;99.99
64198;SHT31;50512;53.666;9.700;2022-09-09T02:41:55;13.23;99.99
64198;SHT31;50512;53.666;9.700;2022-09-09T02:44:20;13.23;99.99
64198;SHT31;50512;53.666;9.700;2022-09-09T02:47:09;13.21;99.99
64198;SHT31;50512;53.666;9.700;2022-09-09T02:49:45;13.23;99.99
64198;SHT31;50512;53.666;9.700;2022-09-09T02:52:15;13.21;99.99
64198;SHT31;50512;53.666;9.700;2022-09-09T02:54:44;13.08;99.99
64198;SHT31;50512;53.666;9.700;2022-09-09T02:57:12;13.04;99.99
64198;SHT31;50512;53.666;9.700;2022-09-09T02:59:38;13.02;99.99
64198;SHT31;50512;53.666;9.700;2022-09-09T03:02:04;12.95;99.99
64198;SHT31;50512;53.666;9.700;2022-09-09T03:04:31;13.01;99.99
64198;SHT31;50512;53.666;9.700;2022-09-09T03:06:56;13.02;99.99
64198;SHT31;50512;53.666;9.700;2022-09-09T03:09:22;13.18;99.99
64198;SHT31;50512;53.666;9.700;2022-09-09T03:11:47;13.29;99.99
64198;SHT31;50512;53.666;9.700;2022-09-09T03:14:13;13.23;99.99
64198;SHT31;50512;53.666;9.700;2022-09-09T03:16:38;13.26;99.99
64198;SHT31;50512;53.666;9.700;2022-09-09T03:19:04;13.35;99.99
64198;SHT31;50512;53.666;9.700;2022-09-09T03:21:31;13.29;99.99
64198;SHT31;50512;53.666;9.700;2022-09-09T03:23:56;13.30;99.99
64198;SHT31;50512;53.666;9.700;2022-09-09T03:26:22;13.29;99.99
64198;SHT31;50512;53.666;9.700;2022-09-09T03:28:47;13.38;99.99
64198;SHT31;50512;53.666;9.700;2022-09-09T03:31:13;13.35;99.99
64198;SHT31;50512;53.666;9.700;2022-09-09T03:33:38;13.30;99.99
64198;SHT31;50512;53.666;9.700;2022-09-09T03:36:05;13.30;99.99
64198;SHT31;50512;53.666;9.700;2022-09-09T03:38:32;13.32;99.99
64198;SHT31;50512;53.666;9.700;2022-09-09T03:40:57;13.34;99.99
64198;SHT31;50512;53.666;9.700;2022-09-09T03:43:23;13.23;99.99
64198;SHT31;50512;53.666;9.700;2022-09-09T03:45:49;13.21;99.99
64198;SHT31;50512;53.666;9.700;2022-09-09T03:48:15;13.12;99.99
64198;SHT31;50512;53.666;9.700;2022-09-09T03:50:44;13.15;99.99
64198;SHT31;50512;53.666;9.700;2022-09-09T03:53:09;13.08;99.99
64198;SHT31;50512;53.666;9.700;2022-09-09T03:55:36;13.01;99.99
64198;SHT31;50512;53.666;9.700;2022-09-09T03:58:02;12.92;99.99
64198;SHT31;50512;53.666;9.700;2022-09-09T04:00:27;12.91;99.99
64198;SHT31;50512;53.666;9.700;2022-09-09T04:02:52;12.92;99.99
64198;SHT31;50512;53.666;9.700;2022-09-09T04:05:18;12.80;99.99
64198;SHT31;50512;53.666;9.700;2022-09-09T04:07:43;13.02;99.99
64198;SHT31;50512;53.666;9.700;2022-09-09T04:10:09;12.91;99.99
64198;SHT31;50512;53.666;9.700;2022-09-09T04:12:36;12.95;99.99
64198;SHT31;50512;53.666;9.700;2022-09-09T04:15:01;12.90;99.99
64198;SHT31;50512;53.666;9.700;2022-09-09T04:17:26;12.87;99.99
64198;SHT31;50512;53.666;9.700;2022-09-09T04:19:52;12.88;99.99
64198;SHT31;50512;53.666;9.700;2022-09-09T04:22:17;12.88;99.99
64198;SHT31;50512;53.666;9.700;2022-09-09T04:24:43;12.85;99.99
64198;SHT31;50512;53.666;9.700;2022-09-09T04:27:08;12.83;99.99
64198;SHT31;50512;53.666;9.700;2022-09-09T04:29:35;12.81;99.99
64198;SHT31;50512;53.666;9.700;2022-09-09T04:32:01;12.88;99.99
64198;SHT31;50512;53.666;9.700;2022-09-09T04:34:26;12.87;99.99
64198;SHT31;50512;53.666;9.700;2022-09-09T04:36:52;12.90;99.99
64198;SHT31;50512;53.666;9.700;2022-09-09T04:39:17;12.87;99.99
64198;SHT31;50512;53.666;9.700;2022-09-09T04:41:43;12.88;99.99
64198;SHT31;50512;53.666;9.700;2022-09-09T04:44:08;12.81;99.99
64198;SHT31;50512;53.666;9.700;2022-09-09T04:46:35;12.76;99.99
64198;SHT31;50512;53.666;9.700;2022-09-09T04:49:00;12.80;99.99
64198;SHT31;50512;53.666;9.700;2022-09-09T04:51:26;12.73;99.99
64198;SHT31;50512;53.666;9.700;2022-09-09T04:53:51;12.83;99.99
64198;SHT31;50512;53.666;9.700;2022-09-09T04:56:17;12.79;99.99
64198;SHT31;50512;53.666;9.700;2022-09-09T04:58:43;12.84;99.99
64198;SHT31;50512;53.666;9.700;2022-09-09T05:01:10;12.90;99.99
64198;SHT31;50512;53.666;9.700;2022-09-09T05:03:37;12.80;99.99
64198;SHT31;50512;53.666;9.700;2022-09-09T05:06:04;12.94;99.99
64198;SHT31;50512;53.666;9.700;2022-09-09T05:08:30;12.98;99.99
64198;SHT31;50512;53.666;9.700;2022-09-09T05:10:55;12.95;99.99
64198;SHT31;50512;53.666;9.700;2022-09-09T05:13:21;12.95;99.99
64198;SHT31;50512;53.666;9.700;2022-09-09T05:15:51;12.95;99.99
64198;SHT31;50512;53.666;9.700;2022-09-09T05:18:17;13.07;99.99
64198;SHT31;50512;53.666;9.700;2022-09-09T05:20:44;13.08;99.99
64198;SHT31;50512;53.666;9.700;2022-09-09T05:23:09;13.11;99.99
64198;SHT31;50512;53.666;9.700;2022-09-09T05:25:35;13.25;99.99
64198;SHT31;50512;53.666;9.700;2022-09-09T05:28:00;13.21;99.99
64198;SHT31;50512;53.666;9.700;2022-09-09T05:30:26;13.16;99.99
64198;SHT31;50512;53.666;9.700;2022-09-09T05:32:51;13.16;99.99
64198;SHT31;50512;53.666;9.700;2022-09-09T05:35:17;13.21;99.99
64198;SHT31;50512;53.666;9.700;2022-09-09T05:37:43;13.29;99.99
64198;SHT31;50512;53.666;9.700;2022-09-09T05:40:09;13.34;99.99
64198;SHT31;50512;53.666;9.700;2022-09-09T05:42:35;13.35;99.99
64198;SHT31;50512;53.666;9.700;2022-09-09T05:45:00;13.38;99.99
64198;SHT31;50512;53.666;9.700;2022-09-09T05:47:25;13.52;99.99
64198;SHT31;50512;53.666;9.700;2022-09-09T05:49:51;13.65;99.99
64198;SHT31;50512;53.666;9.700;2022-09-09T05:52:16;13.90;99.99
64198;SHT31;50512;53.666;9.700;2022-09-09T05:54:43;14.00;99.99
64198;SHT31;50512;53.666;9.700;2022-09-09T05:57:09;14.10;99.99
64198;SHT31;50512;53.666;9.700;2022-09-09T05:59:34;14.22;99.99
64198;SHT31;50512;53.666;9.700;2022-09-09T06:02:00;14.26;99.97
64198;SHT31;50512;53.666;9.700;2022-09-09T06:04:25;14.25;99.93
64198;SHT31;50512;53.666;9.700;2022-09-09T06:06:51;14.35;99.82
64198;SHT31;50512;53.666;9.700;2022-09-09T06:09:16;14.36;99.38
64198;SHT31;50512;53.666;9.700;2022-09-09T06:11:43;14.39;99.20
64198;SHT31;50512;53.666;9.700;2022-09-09T06:14:09;14.49;98.90
64198;SHT31;50512;53.666;9.700;2022-09-09T06:16:35;14.45;98.94
64198;SHT31;50512;53.666;9.700;2022-09-09T06:19:01;14.52;98.49
64198;SHT31;50512;53.666;9.700;2022-09-09T06:21:28;14.55;98.62
64198;SHT31;50512;53.666;9.700;2022-09-09T06:23:54;14.55;98.02
64198;SHT31;50512;53.666;9.700;2022-09-09T06:26:21;14.66;98.18
64198;SHT31;50512;53.666;9.700;2022-09-09T06:28:49;14.65;98.27
64198;SHT31;50512;53.666;9.700;2022-09-09T06:31:17;14.67;98.44
64198;SHT31;50512;53.666;9.700;2022-09-09T06:33:43;14.72;98.23
64198;SHT31;50512;53.666;9.700;2022-09-09T06:36:11;14.77;98.26
64198;SHT31;50512;53.666;9.700;2022-09-09T06:38:36;14.77;97.99
64198;SHT31;50512;53.666;9.700;2022-09-09T06:41:02;14.84;97.99
64198;SHT31;50512;53.666;9.700;2022-09-09T06:43:28;14.93;97.95
64198;SHT31;50512;53.666;9.700;2022-09-09T06:45:56;15.04;97.32
64198;SHT31;50512;53.666;9.700;2022-09-09T06:48:22;15.05;96.83
64198;SHT31;50512;53.666;9.700;2022-09-09T06:50:47;15.08;97.20
64198;SHT31;50512;53.666;9.700;2022-09-09T06:53:16;15.14;96.97
64198;SHT31;50512;53.666;9.700;2022-09-09T06:55:41;15.15;96.59
64198;SHT31;50512;53.666;9.700;2022-09-09T06:58:08;15.18;96.30
64198;SHT31;50512;53.666;9.700;2022-09-09T07:00:33;15.22;96.52
64198;SHT31;50512;53.666;9.700;2022-09-09T07:03:00;15.21;96.30
64198;SHT31;50512;53.666;9.700;2022-09-09T07:05:25;15.22;96.15
64198;SHT31;50512;53.666;9.700;2022-09-09T07:07:51;15.34;96.58
64198;SHT31;50512;53.666;9.700;2022-09-09T07:10:16;15.42;96.61
64198;SHT31;50512;53.666;9.700;2022-09-09T07:12:42;15.53;95.86
64198;SHT31;50512;53.666;9.700;2022-09-09T07:15:08;15.66;96.25
64198;SHT31;50512;53.666;9.700;2022-09-09T07:17:33;15.79;95.91
64198;SHT31;50512;53.666;9.700;2022-09-09T07:20:01;15.94;95.07
64198;SHT31;50512;53.666;9.700;2022-09-09T07:22:27;16.17;95.45
64198;SHT31;50512;53.666;9.700;2022-09-09T07:24:53;16.41;94.47
64198;SHT31;50512;53.666;9.700;2022-09-09T07:27:18;16.48;92.87
64198;SHT31;50512;53.666;9.700;2022-09-09T07:29:44;16.72;93.10
64198;SHT31;50512;53.666;9.700;2022-09-09T07:32:09;16.84;92.53
64198;SHT31;50512;53.666;9.700;2022-09-09T07:34:35;16.87;91.90
64198;SHT31;50512;53.666;9.700;2022-09-09T07:37:02;16.81;91.15
64198;SHT31;50512;53.666;9.700;2022-09-09T07:39:27;16.90;91.20
64198;SHT31;50512;53.666;9.700;2022-09-09T07:41:53;16.96;91.17
64198;SHT31;50512;53.666;9.700;2022-09-09T07:44:19;17.02;91.43
64198;SHT31;50512;53.666;9.700;2022-09-09T07:46:45;17.23;91.21
64198;SHT31;50512;53.666;9.700;2022-09-09T07:49:11;17.30;90.27
64198;SHT31;50512;53.666;9.700;2022-09-09T07:51:38;17.30;89.53
64198;SHT31;50512;53.666;9.700;2022-09-09T07:54:07;17.23;89.91
64198;SHT31;50512;53.666;9.700;2022-09-09T07:56:33;17.36;90.58
64198;SHT31;50512;53.666;9.700;2022-09-09T07:58:59;17.79;88.90
64198;SHT31;50512;53.666;9.700;2022-09-09T08:01:27;17.85;88.44
64198;SHT31;50512;53.666;9.700;2022-09-09T08:03:54;17.96;87.82
64198;SHT31;50512;53.666;9.700;2022-09-09T08:06:20;18.08;87.27
64198;SHT31;50512;53.666;9.700;2022-09-09T08:08:50;18.44;86.65
64198;SHT31;50512;53.666;9.700;2022-09-09T08:11:17;18.76;86.58
64198;SHT31;50512;53.666;9.700;2022-09-09T08:13:43;19.48;83.20
64198;SHT31;50512;53.666;9.700;2022-09-09T08:16:11;19.94;82.46
64198;SHT31;50512;53.666;9.700;2022-09-09T08:18:37;20.20;82.20
64198;SHT31;50512;53.666;9.700;2022-09-09T08:21:07;20.00;81.23
64198;SHT31;50512;53.666;9.700;2022-09-09T08:23:33;19.73;81.16
64198;SHT31;50512;53.666;9.700;2022-09-09T08:26:04;19.31;81.38
64198;SHT31;50512;53.666;9.700;2022-09-09T08:28:33;19.10;83.01
64198;SHT31;50512;53.666;9.700;2022-09-09T08:31:05;19.06;84.19
64198;SHT31;50512;53.666;9.700;2022-09-09T08:33:31;18.95;83.03
64198;SHT31;50512;53.666;9.700;2022-09-09T08:35:57;18.69;83.32
64198;SHT31;50512;53.666;9.700;2022-09-09T08:38:22;18.47;84.59
64198;SHT31;50512;53.666;9.700;2022-09-09T08:40:48;18.31;84.80
64198;SHT31;50512;53.666;9.700;2022-09-09T08:43:18;18.13;84.84
64198;SHT31;50512;53.666;9.700;2022-09-09T08:45:52;17.96;86.24
64198;SHT31;50512;53.666;9.700;2022-09-09T08:48:43;17.97;86.52
64198;SHT31;50512;53.666;9.700;2022-09-09T08:51:09;18.01;86.92
64198;SHT31;50512;53.666;9.700;2022-09-09T08:53:38;18.03;87.31
64198;SHT31;50512;53.666;9.700;2022-09-09T08:56:10;18.01;87.40
64198;SHT31;50512;53.666;9.700;2022-09-09T08:58:43;18.08;88.24
64198;SHT31;50512;53.666;9.700;2022-09-09T09:01:24;18.00;87.10
64198;SHT31;50512;53.666;9.700;2022-09-09T09:03:57;18.08;87.73
64198;SHT31;50512;53.666;9.700;2022-09-09T09:06:35;17.96;86.71
64198;SHT31;50512;53.666;9.700;2022-09-09T09:09:08;17.90;87.94
64198;SHT31;50512;53.666;9.700;2022-09-09T09:11:38;17.80;86.61
64198;SHT31;50512;53.666;9.700;2022-09-09T09:14:09;17.83;87.71
64198;SHT31;50512;53.666;9.700;2022-09-09T09:16:40;17.82;87.02
64198;SHT31;50512;53.666;9.700;2022-09-09T09:19:08;17.72;87.22
64198;SHT31;50512;53.666;9.700;2022-09-09T09:21:41;17.87;87.57
64198;SHT31;50512;53.666;9.700;2022-09-09T09:24:14;18.04;87.05
64198;SHT31;50512;53.666;9.700;2022-09-09T09:26:42;18.20;86.01
64198;SHT31;50512;53.666;9.700;2022-09-09T09:29:10;18.82;85.29
64198;SHT31;50512;53.666;9.700;2022-09-09T09:31:38;19.39;81.16
64198;SHT31;50512;53.666;9.700;2022-09-09T09:34:03;19.96;80.74
64198;SHT31;50512;53.666;9.700;2022-09-09T09:36:37;20.43;78.48
64198;SHT31;50512;53.666;9.700;2022-09-09T09:39:03;20.69;76.94
64198;SHT31;50512;53.666;9.700;2022-09-09T09:41:31;20.51;78.06
64198;SHT31;50512;53.666;9.700;2022-09-09T09:43:58;20.49;76.91
64198;SHT31;50512;53.666;9.700;2022-09-09T09:46:24;20.30;77.82
64198;SHT31;50512;53.666;9.700;2022-09-09T09:48:58;20.35;78.75
64198;SHT31;50512;53.666;9.700;2022-09-09T09:51:24;20.44;78.79
64198;SHT31;50512;53.666;9.700;2022-09-09T09:53:50;20.27;77.79
64198;SHT31;50512;53.666;9.700;2022-09-09T09:56:16;20.37;79.27
64198;SHT31;50512;53.666;9.700;2022-09-09T09:58:49;20.59;78.92
64198;SHT31;50512;53.666;9.700;2022-09-09T10:01:20;20.51;77.39
64198;SHT31;50512;53.666;9.700;2022-09-09T10:03:50;20.56;78.50
64198;SHT31;50512;53.666;9.700;2022-09-09T10:06:29;20.54;74.26
64198;SHT31;50512;53.666;9.700;2022-09-09T10:08:54;20.47;75.94
64198;SHT31;50512;53.666;9.700;2022-09-09T10:11:30;20.33;78.78
64198;SHT31;50512;53.666;9.700;2022-09-09T10:14:08;20.52;76.44
64198;SHT31;50512;53.666;9.700;2022-09-09T10:16:46;20.45;75.56
64198;SHT31;50512;53.666;9.700;2022-09-09T10:19:14;20.69;76.30
64198;SHT31;50512;53.666;9.700;2022-09-09T10:21:59;20.65;76.17
64198;SHT31;50512;53.666;9.700;2022-09-09T10:27:33;20.73;74.94
64198;SHT31;50512;53.666;9.700;2022-09-09T10:30:06;20.93;76.46
64198;SHT31;50512;53.666;9.700;2022-09-09T10:32:41;20.96;76.89
64198;SHT31;50512;53.666;9.700;2022-09-09T10:35:14;20.88;74.30
64198;SHT31;50512;53.666;9.700;2022-09-09T10:37:51;20.98;76.21
64198;SHT31;50512;53.666;9.700;2022-09-09T10:40:26;21.09;75.32
64198;SHT31;50512;53.666;9.700;2022-09-09T10:42:58;21.22;72.15
64198;SHT31;50512;53.666;9.700;2022-09-09T10:45:31;21.23;73.80
64198;SHT31;50512;53.666;9.700;2022-09-09T10:48:07;21.17;73.49
64198;SHT31;50512;53.666;9.700;2022-09-09T10:50:44;21.22;72.28
64198;SHT31;50512;53.666;9.700;2022-09-09T10:53:18;21.44;71.12
64198;SHT31;50512;53.666;9.700;2022-09-09T10:55:52;21.59;71.78
64198;SHT31;50512;53.666;9.700;2022-09-09T10:58:23;21.58;69.71
64198;SHT31;50512;53.666;9.700;2022-09-09T11:00:54;21.65;71.58
64198;SHT31;50512;53.666;9.700;2022-09-09T11:03:23;21.77;70.58
64198;SHT31;50512;53.666;9.700;2022-09-09T11:05:54;21.96;70.93
64198;SHT31;50512;53.666;9.700;2022-09-09T11:08:24;21.92;71.23
64198;SHT31;50512;53.666;9.700;2022-09-09T11:10:55;21.75;71.09
64198;SHT31;50512;53.666;9.700;2022-09-09T11:13:29;21.75;69.79
64198;SHT31;50512;53.666;9.700;2022-09-09T11:16:00;21.82;69.39
64198;SHT31;50512;53.666;9.700;2022-09-09T11:18:29;21.79;69.27
64198;SHT31;50512;53.666;9.700;2022-09-09T11:20:59;21.74;69.05
64198;SHT31;50512;53.666;9.700;2022-09-09T11:23:33;21.48;69.79
64198;SHT31;50512;53.666;9.700;2022-09-09T11:26:03;21.50;70.10
64198;SHT31;50512;53.666;9.700;2022-09-09T11:28:41;21.44;70.70
64198;SHT31;50512;53.666;9.700;2022-09-09T11:31:31;21.45;69.05
64198;SHT31;50512;53.666;9.700;2022-09-09T11:34:13;21.54;71.14
64198;SHT31;50512;53.666;9.700;2022-09-09T11:37:05;21.40;69.88
64198;SHT31;50512;53.666;9.700;2022-09-09T11:39:48;21.30;71.15
64198;SHT31;50512;53.666;9.700;2022-09-09T11:42:18;21.40;70.72
64198;SHT31;50512;53.666;9.700;2022-09-09T11:44:44;21.64;71.49
64198;SHT31;50512;53.666;9.700;2022-09-09T11:47:19;21.98;72.22
64198;SHT31;50512;53.666;9.700;2022-09-09T11:49:45;21.92;70.22
64198;SHT31;50512;53.666;9.700;2022-09-09T11:52:11;21.95;70.54
64198;SHT31;50512;53.666;9.700;2022-09-09T11:54:47;21.96;70.51
64198;SHT31;50512;53.666;9.700;2022-09-09T11:57:24;22.06;69.92
64198;SHT31;50512;53.666;9.700;2022-09-09T11:59:51;21.90;69.93
64198;SHT31;50512;53.666;9.700;2022-09-09T12:02:22;21.93;69.59
64198;SHT31;50512;53.666;9.700;2022-09-09T12:04:53;21.58;70.57
64198;SHT31;50512;53.666;9.700;2022-09-09T12:07:32;21.47;72.60
64198;SHT31;50512;53.666;9.700;2022-09-09T12:10:03;21.54;70.75
64198;SHT31;50512;53.666;9.700;2022-09-09T12:12:31;21.75;71.70
64198;SHT31;50512;53.666;9.700;2022-09-09T12:15:00;21.74;70.64
64198;SHT31;50512;53.666;9.700;2022-09-09T12:17:28;21.75;70.62
64198;SHT31;50512;53.666;9.700;2022-09-09T12:20:03;21.74;71.44
64198;SHT31;50512;53.666;9.700;2022-09-09T12:22:34;21.68;70.19
64198;SHT31;50512;53.666;9.700;2022-09-09T12:25:12;21.65;70.45
64198;SHT31;50512;53.666;9.700;2022-09-09T12:27:44;21.66;70.10
64198;SHT31;50512;53.666;9.700;2022-09-09T12:30:15;21.81;71.29
64198;SHT31;50512;53.666;9.700;2022-09-09T12:32:41;21.82;68.99
64198;SHT31;50512;53.666;9.700;2022-09-09T12:35:11;21.68;69.88
64198;SHT31;50512;53.666;9.700;2022-09-09T12:37:39;21.65;69.84
64198;SHT31;50512;53.666;9.700;2022-09-09T12:40:20;21.66;70.01
64198;SHT31;50512;53.666;9.700;2022-09-09T12:42:45;21.77;69.38
64198;SHT31;50512;53.666;9.700;2022-09-09T12:45:16;21.79;68.80
64198;SHT31;50512;53.666;9.700;2022-09-09T12:47:45;21.75;70.17
64198;SHT31;50512;53.666;9.700;2022-09-09T12:50:16;21.81;70.76
64198;SHT31;50512;53.666;9.700;2022-09-09T12:52:42;21.86;70.84
64198;SHT31;50512;53.666;9.700;2022-09-09T12:55:18;21.78;69.31
64198;SHT31;50512;53.666;9.700;2022-09-09T12:57:44;21.77;68.76
64198;SHT31;50512;53.666;9.700;2022-09-09T13:00:15;21.54;69.55
64198;SHT31;50512;53.666;9.700;2022-09-09T13:02:50;21.50;69.39
64198;SHT31;50512;53.666;9.700;2022-09-09T13:05:18;21.34;70.29
64198;SHT31;50512;53.666;9.700;2022-09-09T13:07:44;21.19;71.28
64198;SHT31;50512;53.666;9.700;2022-09-09T13:10:11;21.11;71.81
64198;SHT31;50512;53.666;9.700;2022-09-09T13:12:39;20.98;72.01
64198;SHT31;50512;53.666;9.700;2022-09-09T13:15:14;20.99;70.89
64198;SHT31;50512;53.666;9.700;2022-09-09T13:17:42;20.90;71.67
64198;SHT31;50512;53.666;9.700;2022-09-09T13:20:16;20.88;71.26
64198;SHT31;50512;53.666;9.700;2022-09-09T13:22:42;20.85;71.92
64198;SHT31;50512;53.666;9.700;2022-09-09T13:25:18;20.88;71.38
64198;SHT31;50512;53.666;9.700;2022-09-09T13:27:54;20.79;72.15
64198;SHT31;50512;53.666;9.700;2022-09-09T13:30:22;20.86;71.51
64198;SHT31;50512;53.666;9.700;2022-09-09T13:32:59;20.89;72.09
64198;SHT31;50512;53.666;9.700;2022-09-09T13:35:25;20.72;72.66
64198;SHT31;50512;53.666;9.700;2022-09-09T13:37:50;20.67;72.53
64198;SHT31;50512;53.666;9.700;2022-09-09T13:40:18;20.61;74.27
64198;SHT31;50512;53.666;9.700;2022-09-09T13:42:45;20.59;74.24
64198;SHT31;50512;53.666;9.700;2022-09-09T13:45:18;20.56;74.47
64198;SHT31;50512;53.666;9.700;2022-09-09T13:47:44;20.48;74.66
64198;SHT31;50512;53.666;9.700;2022-09-09T13:50:18;20.52;75.56
64198;SHT31;50512;53.666;9.700;2022-09-09T13:52:43;20.49;75.00
64198;SHT31;50512;53.666;9.700;2022-09-09T13:55:09;20.47;75.50
64198;SHT31;50512;53.666;9.700;2022-09-09T13:57:34;20.51;75.70
64198;SHT31;50512;53.666;9.700;2022-09-09T14:00:00;20.38;74.75
64198;SHT31;50512;53.666;9.700;2022-09-09T14:02:27;20.07;73.82
64198;SHT31;50512;53.666;9.700;2022-09-09T14:04:52;20.06;74.17
64198;SHT31;50512;53.666;9.700;2022-09-09T14:07:18;19.97;74.19
64198;SHT31;50512;53.666;9.700;2022-09-09T14:09:44;20.01;74.61
64198;SHT31;50512;53.666;9.700;2022-09-09T14:12:10;19.90;75.31
64198;SHT31;50512;53.666;9.700;2022-09-09T14:14:36;19.99;76.00
64198;SHT31;50512;53.666;9.700;2022-09-09T14:17:01;19.87;75.05
64198;SHT31;50512;53.666;9.700;2022-09-09T14:19:28;19.65;75.15
64198;SHT31;50512;53.666;9.700;2022-09-09T14:21:54;19.54;76.78
64198;SHT31;50512;53.666;9.700;2022-09-09T14:24:19;19.58;76.90
64198;SHT31;50512;53.666;9.700;2022-09-09T14:26:45;19.66;76.62
64198;SHT31;50512;53.666;9.700;2022-09-09T14:29:10;19.62;77.63
64198;SHT31;50512;53.666;9.700;2022-09-09T14:31:35;19.73;77.59
64198;SHT31;50512;53.666;9.700;2022-09-09T14:34:01;19.76;77.26
64198;SHT31;50512;53.666;9.700;2022-09-09T14:36:28;19.68;76.73
64198;SHT31;50512;53.666;9.700;2022-09-09T14:38:53;19.61;76.57
64198;SHT31;50512;53.666;9.700;2022-09-09T14:41:19;19.48;76.62
64198;SHT31;50512;53.666;9.700;2022-09-09T14:43:46;19.47;77.21
64198;SHT31;50512;53.666;9.700;2022-09-09T14:46:13;19.45;75.72
64198;SHT31;50512;53.666;9.700;2022-09-09T14:48:39;19.42;76.14
64198;SHT31;50512;53.666;9.700;2022-09-09T14:51:06;19.47;76.54
64198;SHT31;50512;53.666;9.700;2022-09-09T14:53:33;19.39;76.82
64198;SHT31;50512;53.666;9.700;2022-09-09T14:56:04;19.28;76.10
64198;SHT31;50512;53.666;9.700;2022-09-09T14:58:30;19.31;77.32
64198;SHT31;50512;53.666;9.700;2022-09-09T15:01:02;19.28;77.43
64198;SHT31;50512;53.666;9.700;2022-09-09T15:03:28;19.25;77.38
64198;SHT31;50512;53.666;9.700;2022-09-09T15:05:53;19.11;77.32
64198;SHT31;50512;53.666;9.700;2022-09-09T15:08:18;19.16;77.46
64198;SHT31;50512;53.666;9.700;2022-09-09T15:10:45;19.16;77.80
64198;SHT31;50512;53.666;9.700;2022-09-09T15:13:11;19.17;78.66
64198;SHT31;50512;53.666;9.700;2022-09-09T15:15:36;19.16;77.76
64198;SHT31;50512;53.666;9.700;2022-09-09T15:18:02;19.07;77.93
64198;SHT31;50512;53.666;9.700;2022-09-09T15:20:27;19.06;78.60
64198;SHT31;50512;53.666;9.700;2022-09-09T15:22:52;18.97;78.35
64198;SHT31;50512;53.666;9.700;2022-09-09T15:25:18;19.02;79.54
64198;SHT31;50512;53.666;9.700;2022-09-09T15:27:45;19.00;79.22
64198;SHT31;50512;53.666;9.700;2022-09-09T15:30:11;18.96;78.62
64198;SHT31;50512;53.666;9.700;2022-09-09T15:32:37;19.02;78.85
64198;SHT31;50512;53.666;9.700;2022-09-09T15:35:02;19.08;79.16
64198;SHT31;50512;53.666;9.700;2022-09-09T15:37:28;19.04;78.75
64198;SHT31;50512;53.666;9.700;2022-09-09T15:39:53;19.06;78.36
64198;SHT31;50512;53.666;9.700;2022-09-09T15:42:19;19.04;78.71